Trantlebeg, United Kingdom

6:29 AM GMT on February 22, 2017 (GMT +0000)
Strathy | | Change Station

Elev 100 ft 58.55 °N, 3.99 °W | Updated 14 minutes ago

Partly Cloudy
Partly Cloudy
42.3 °F
Feels Like 32 °F
N
26.0
Wind Variable Wind from West
Gusts 43.0 mph

Today
High -- | Low -- °F
--% Chance of Precip.
Yesterday
High -- | Low -- °F
Precip. -- in
Pressure 29.12 in
Visibility 6.2 miles
Clouds
Windchill 32 °F
Dew Point 37 °F
Humidity 82%
Rainfall 0.18 in
Snow Depth Not available.
7:29 AM 5:29 PM
Waning Crescent, 19% visible
METAR EGPC 220620Z AUTO 26029KT 9999 NCD 04/02 Q0986
Pressure 29.12 in
Visibility 6.2 miles
Clouds
Windchill 32 °F
Dew Point 37 °F
Humidity 82%
Rainfall 0.18 in
Snow Depth Not available.
7:29 AM 5:29 PM
Waning Crescent, 19% visible
METAR EGPC 220620Z AUTO 26029KT 9999 NCD 04/02 Q0986

Get Your Daily Forecast Email!

Thanks for signing up!

Be on the lookout for a verification email in your inbox.

You'll start receiving the daily forecast at 8 AM.

×

10-Day Weather Forecast

×

Almanac

Astronomy

Feb. 22, 2017 Rise Set
Actual Time
Civil Twilight
Nautical Twilight
Astronomical Twilight
Moon
Length of Visible Light
Length of Day
Tomorrow will be .
, % of the Moon is Illuminated

Today's Extremes

Country Highs Country Lows

Community

WunderPhotos

Upload Photos

1,962,540 photos uploaded!

WunderBlog® & News

Nearby

Air Quality

  Air Quality AQ Index Pollutant
Not available.

Snow Depth

Station Depth Elevation

Earthquake Activity

City Distance Mag. Time & Date
Minimum magnitude displayed is 2.5.

Coastal Water Temperatures

Place Temperature

Stations

Nearby Weather Stations

Station Location Temp. Windchill Dew Point Humidity Wind Precip. Elev Updated Type